sensor_id;sensor_type;location;lat;lon;timestamp;P1;durP1;ratioP1;P2;durP2;ratioP2
6033;SDS011;3045;43.226;27.858;2022-12-29T00:00:00;9.33;;;8.43;;
6033;SDS011;3045;43.226;27.858;2022-12-29T00:02:27;26.50;;;17.17;;
6033;SDS011;3045;43.226;27.858;2022-12-29T00:04:54;8.93;;;8.30;;
6033;SDS011;3045;43.226;27.858;2022-12-29T00:07:21;16.10;;;14.13;;
6033;SDS011;3045;43.226;27.858;2022-12-29T00:09:48;23.70;;;14.17;;
6033;SDS011;3045;43.226;27.858;2022-12-29T00:12:15;11.93;;;10.20;;
6033;SDS011;3045;43.226;27.858;2022-12-29T00:14:43;24.83;;;15.73;;
6033;SDS011;3045;43.226;27.858;2022-12-29T00:17:42;29.87;;;18.83;;
6033;SDS011;3045;43.226;27.858;2022-12-29T00:20:09;13.13;;;10.53;;
6033;SDS011;3045;43.226;27.858;2022-12-29T00:22:53;10.63;;;9.60;;
6033;SDS011;3045;43.226;27.858;2022-12-29T00:25:37;10.90;;;8.60;;
6033;SDS011;3045;43.226;27.858;2022-12-29T00:28:22;11.37;;;9.57;;
6033;SDS011;3045;43.226;27.858;2022-12-29T00:31:08;13.33;;;10.53;;
6033;SDS011;3045;43.226;27.858;2022-12-29T00:33:56;14.30;;;11.03;;
6033;SDS011;3045;43.226;27.858;2022-12-29T00:36:45;13.53;;;10.40;;
6033;SDS011;3045;43.226;27.858;2022-12-29T00:39:12;10.50;;;7.53;;
6033;SDS011;3045;43.226;27.858;2022-12-29T00:42:02;11.23;;;8.70;;
6033;SDS011;3045;43.226;27.858;2022-12-29T00:44:47;10.23;;;9.20;;
6033;SDS011;3045;43.226;27.858;2022-12-29T00:47:15;9.37;;;8.43;;
6033;SDS011;3045;43.226;27.858;2022-12-29T00:49:42;9.93;;;8.33;;
6033;SDS011;3045;43.226;27.858;2022-12-29T00:52:09;9.83;;;8.13;;
6033;SDS011;3045;43.226;27.858;2022-12-29T00:54:38;10.97;;;8.97;;
6033;SDS011;3045;43.226;27.858;2022-12-29T00:57:07;9.63;;;8.67;;
6033;SDS011;3045;43.226;27.858;2022-12-29T00:59:35;8.67;;;7.90;;
6033;SDS011;3045;43.226;27.858;2022-12-29T01:02:03;13.83;;;10.60;;
6033;SDS011;3045;43.226;27.858;2022-12-29T01:04:31;11.87;;;9.60;;
6033;SDS011;3045;43.226;27.858;2022-12-29T01:06:58;11.97;;;10.03;;
6033;SDS011;3045;43.226;27.858;2022-12-29T01:09:26;9.03;;;8.37;;
6033;SDS011;3045;43.226;27.858;2022-12-29T01:12:10;8.13;;;7.40;;
6033;SDS011;3045;43.226;27.858;2022-12-29T01:14:38;7.80;;;7.07;;
6033;SDS011;3045;43.226;27.858;2022-12-29T01:17:05;9.73;;;6.83;;
6033;SDS011;3045;43.226;27.858;2022-12-29T01:19:33;14.37;;;8.87;;
6033;SDS011;3045;43.226;27.858;2022-12-29T01:22:00;48.63;;;27.80;;
6033;SDS011;3045;43.226;27.858;2022-12-29T01:24:27;11.80;;;10.00;;
6033;SDS011;3045;43.226;27.858;2022-12-29T01:26:54;9.87;;;9.00;;
6033;SDS011;3045;43.226;27.858;2022-12-29T01:29:21;9.73;;;8.70;;
6033;SDS011;3045;43.226;27.858;2022-12-29T01:31:48;8.90;;;8.13;;
6033;SDS011;3045;43.226;27.858;2022-12-29T01:34:15;11.07;;;8.50;;
6033;SDS011;3045;43.226;27.858;2022-12-29T01:36:43;11.93;;;8.10;;
6033;SDS011;3045;43.226;27.858;2022-12-29T01:39:10;10.23;;;7.73;;
6033;SDS011;3045;43.226;27.858;2022-12-29T01:41:37;9.93;;;8.97;;
6033;SDS011;3045;43.226;27.858;2022-12-29T01:47:04;10.73;;;9.73;;
6033;SDS011;3045;43.226;27.858;2022-12-29T01:49:31;13.47;;;12.07;;
6033;SDS011;3045;43.226;27.858;2022-12-29T01:52:00;8.97;;;8.27;;
6033;SDS011;3045;43.226;27.858;2022-12-29T01:54:31;11.53;;;8.87;;
6033;SDS011;3045;43.226;27.858;2022-12-29T01:57:03;24.40;;;13.83;;
6033;SDS011;3045;43.226;27.858;2022-12-29T01:59:34;17.57;;;12.70;;
6033;SDS011;3045;43.226;27.858;2022-12-29T02:02:04;29.90;;;18.37;;
6033;SDS011;3045;43.226;27.858;2022-12-29T02:04:33;48.23;;;26.13;;
6033;SDS011;3045;43.226;27.858;2022-12-29T02:07:03;21.33;;;14.17;;
6033;SDS011;3045;43.226;27.858;2022-12-29T02:09:34;17.17;;;13.67;;
6033;SDS011;3045;43.226;27.858;2022-12-29T02:12:02;31.50;;;18.17;;
6033;SDS011;3045;43.226;27.858;2022-12-29T02:14:29;27.67;;;17.20;;
6033;SDS011;3045;43.226;27.858;2022-12-29T02:16:59;33.27;;;20.20;;
6033;SDS011;3045;43.226;27.858;2022-12-29T02:19:52;32.33;;;19.07;;
6033;SDS011;3045;43.226;27.858;2022-12-29T02:22:38;30.53;;;19.33;;
6033;SDS011;3045;43.226;27.858;2022-12-29T02:25:19;27.30;;;19.63;;
6033;SDS011;3045;43.226;27.858;2022-12-29T02:31:25;28.17;;;17.97;;
6033;SDS011;3045;43.226;27.858;2022-12-29T02:34:00;29.13;;;17.20;;
6033;SDS011;3045;43.226;27.858;2022-12-29T02:36:36;29.33;;;17.23;;
6033;SDS011;3045;43.226;27.858;2022-12-29T02:39:12;28.53;;;17.70;;
6033;SDS011;3045;43.226;27.858;2022-12-29T02:41:48;26.67;;;16.60;;
6033;SDS011;3045;43.226;27.858;2022-12-29T02:44:27;13.87;;;11.37;;
6033;SDS011;3045;43.226;27.858;2022-12-29T02:47:04;21.47;;;14.10;;
6033;SDS011;3045;43.226;27.858;2022-12-29T02:49:38;15.17;;;13.13;;
6033;SDS011;3045;43.226;27.858;2022-12-29T02:52:11;13.50;;;12.10;;
6033;SDS011;3045;43.226;27.858;2022-12-29T02:54:42;19.10;;;13.60;;
6033;SDS011;3045;43.226;27.858;2022-12-29T02:57:10;12.67;;;11.00;;
6033;SDS011;3045;43.226;27.858;2022-12-29T02:59:38;17.03;;;12.87;;
6033;SDS011;3045;43.226;27.858;2022-12-29T03:02:10;21.43;;;12.10;;
6033;SDS011;3045;43.226;27.858;2022-12-29T03:08:01;10.97;;;9.63;;
6033;SDS011;3045;43.226;27.858;2022-12-29T03:10:35;22.17;;;10.50;;
6033;SDS011;3045;43.226;27.858;2022-12-29T03:13:08;12.27;;;9.57;;
6033;SDS011;3045;43.226;27.858;2022-12-29T03:16:01;12.47;;;11.23;;
6033;SDS011;3045;43.226;27.858;2022-12-29T03:18:37;18.10;;;11.73;;
6033;SDS011;3045;43.226;27.858;2022-12-29T03:21:12;15.93;;;9.20;;
6033;SDS011;3045;43.226;27.858;2022-12-29T03:23:43;10.83;;;9.30;;
6033;SDS011;3045;43.226;27.858;2022-12-29T03:26:14;15.80;;;9.33;;
6033;SDS011;3045;43.226;27.858;2022-12-29T03:28:44;9.73;;;7.93;;
6033;SDS011;3045;43.226;27.858;2022-12-29T03:31:16;10.87;;;8.17;;
6033;SDS011;3045;43.226;27.858;2022-12-29T03:33:46;8.67;;;7.97;;
6033;SDS011;3045;43.226;27.858;2022-12-29T03:36:16;18.10;;;8.20;;
6033;SDS011;3045;43.226;27.858;2022-12-29T03:38:50;7.53;;;6.90;;
6033;SDS011;3045;43.226;27.858;2022-12-29T03:41:23;7.83;;;6.67;;
6033;SDS011;3045;43.226;27.858;2022-12-29T03:43:55;8.53;;;5.70;;
6033;SDS011;3045;43.226;27.858;2022-12-29T03:46:21;16.70;;;7.13;;
6033;SDS011;3045;43.226;27.858;2022-12-29T03:48:50;13.13;;;6.10;;
6033;SDS011;3045;43.226;27.858;2022-12-29T03:51:16;6.00;;;5.70;;
6033;SDS011;3045;43.226;27.858;2022-12-29T03:53:43;6.50;;;6.03;;
6033;SDS011;3045;43.226;27.858;2022-12-29T03:56:10;6.10;;;5.60;;
6033;SDS011;3045;43.226;27.858;2022-12-29T03:58:37;7.70;;;5.60;;
6033;SDS011;3045;43.226;27.858;2022-12-29T04:01:04;6.80;;;6.00;;
6033;SDS011;3045;43.226;27.858;2022-12-29T04:03:31;7.27;;;5.97;;
6033;SDS011;3045;43.226;27.858;2022-12-29T04:05:59;8.93;;;5.80;;
6033;SDS011;3045;43.226;27.858;2022-12-29T04:08:26;9.33;;;5.77;;
6033;SDS011;3045;43.226;27.858;2022-12-29T04:10:53;19.00;;;6.43;;
6033;SDS011;3045;43.226;27.858;2022-12-29T04:13:19;16.50;;;11.90;;
6033;SDS011;3045;43.226;27.858;2022-12-29T04:15:46;28.03;;;7.57;;
6033;SDS011;3045;43.226;27.858;2022-12-29T04:18:13;27.77;;;11.10;;
6033;SDS011;3045;43.226;27.858;2022-12-29T04:20:41;15.30;;;8.63;;
6033;SDS011;3045;43.226;27.858;2022-12-29T04:23:29;21.23;;;12.70;;
6033;SDS011;3045;43.226;27.858;2022-12-29T04:25:57;17.07;;;9.00;;
6033;SDS011;3045;43.226;27.858;2022-12-29T04:28:24;20.23;;;10.57;;
6033;SDS011;3045;43.226;27.858;2022-12-29T04:30:51;26.33;;;8.80;;
6033;SDS011;3045;43.226;27.858;2022-12-29T04:33:18;23.90;;;8.87;;
6033;SDS011;3045;43.226;27.858;2022-12-29T04:35:45;17.53;;;9.30;;
6033;SDS011;3045;43.226;27.858;2022-12-29T04:38:12;20.53;;;8.93;;
6033;SDS011;3045;43.226;27.858;2022-12-29T04:40:41;16.13;;;9.90;;
6033;SDS011;3045;43.226;27.858;2022-12-29T04:43:09;32.20;;;11.20;;
6033;SDS011;3045;43.226;27.858;2022-12-29T04:45:36;32.43;;;12.07;;
6033;SDS011;3045;43.226;27.858;2022-12-29T04:48:03;19.77;;;11.90;;
6033;SDS011;3045;43.226;27.858;2022-12-29T04:50:30;32.37;;;12.13;;
6033;SDS011;3045;43.226;27.858;2022-12-29T04:52:57;12.53;;;9.27;;
6033;SDS011;3045;43.226;27.858;2022-12-29T04:55:24;18.20;;;10.10;;
6033;SDS011;3045;43.226;27.858;2022-12-29T04:57:52;19.63;;;8.27;;
6033;SDS011;3045;43.226;27.858;2022-12-29T05:00:19;25.80;;;11.60;;
6033;SDS011;3045;43.226;27.858;2022-12-29T05:02:46;19.17;;;11.77;;
6033;SDS011;3045;43.226;27.858;2022-12-29T05:05:13;18.77;;;10.53;;
6033;SDS011;3045;43.226;27.858;2022-12-29T05:07:40;32.40;;;12.43;;
6033;SDS011;3045;43.226;27.858;2022-12-29T05:10:07;23.17;;;10.53;;
6033;SDS011;3045;43.226;27.858;2022-12-29T05:12:36;25.43;;;11.13;;
6033;SDS011;3045;43.226;27.858;2022-12-29T05:15:06;23.00;;;9.70;;
6033;SDS011;3045;43.226;27.858;2022-12-29T05:17:34;27.63;;;10.33;;
6033;SDS011;3045;43.226;27.858;2022-12-29T05:20:00;26.87;;;10.13;;
6033;SDS011;3045;43.226;27.858;2022-12-29T05:22:27;43.37;;;12.13;;
6033;SDS011;3045;43.226;27.858;2022-12-29T05:24:54;24.00;;;10.60;;
6033;SDS011;3045;43.226;27.858;2022-12-29T05:27:21;18.03;;;9.03;;
6033;SDS011;3045;43.226;27.858;2022-12-29T05:29:48;25.83;;;11.23;;
6033;SDS011;3045;43.226;27.858;2022-12-29T05:32:16;17.27;;;9.77;;
6033;SDS011;3045;43.226;27.858;2022-12-29T05:34:43;40.60;;;13.40;;
6033;SDS011;3045;43.226;27.858;2022-12-29T05:37:10;42.43;;;12.60;;
6033;SDS011;3045;43.226;27.858;2022-12-29T05:39:38;32.10;;;10.63;;
6033;SDS011;3045;43.226;27.858;2022-12-29T05:42:05;21.23;;;8.80;;
6033;SDS011;3045;43.226;27.858;2022-12-29T05:44:32;34.07;;;15.93;;
6033;SDS011;3045;43.226;27.858;2022-12-29T05:46:59;36.50;;;15.03;;
6033;SDS011;3045;43.226;27.858;2022-12-29T05:49:27;17.67;;;10.77;;
6033;SDS011;3045;43.226;27.858;2022-12-29T05:51:54;21.70;;;12.40;;
6033;SDS011;3045;43.226;27.858;2022-12-29T05:54:20;31.00;;;16.53;;
6033;SDS011;3045;43.226;27.858;2022-12-29T05:56:47;36.10;;;17.63;;
6033;SDS011;3045;43.226;27.858;2022-12-29T05:59:14;31.27;;;14.93;;
6033;SDS011;3045;43.226;27.858;2022-12-29T06:01:41;53.20;;;19.37;;
6033;SDS011;3045;43.226;27.858;2022-12-29T06:04:08;33.90;;;20.43;;
6033;SDS011;3045;43.226;27.858;2022-12-29T06:06:36;36.73;;;19.37;;
6033;SDS011;3045;43.226;27.858;2022-12-29T06:09:04;36.00;;;15.83;;
6033;SDS011;3045;43.226;27.858;2022-12-29T06:11:30;29.30;;;16.70;;
6033;SDS011;3045;43.226;27.858;2022-12-29T06:13:57;29.73;;;15.77;;
6033;SDS011;3045;43.226;27.858;2022-12-29T06:16:24;41.53;;;16.70;;
6033;SDS011;3045;43.226;27.858;2022-12-29T06:18:51;29.27;;;18.03;;
6033;SDS011;3045;43.226;27.858;2022-12-29T06:21:18;37.53;;;16.60;;
6033;SDS011;3045;43.226;27.858;2022-12-29T06:23:46;44.23;;;17.90;;
6033;SDS011;3045;43.226;27.858;2022-12-29T06:26:13;38.17;;;18.43;;
6033;SDS011;3045;43.226;27.858;2022-12-29T06:28:40;47.43;;;19.87;;
6033;SDS011;3045;43.226;27.858;2022-12-29T06:31:08;30.60;;;17.70;;
6033;SDS011;3045;43.226;27.858;2022-12-29T06:33:35;23.73;;;17.63;;
6033;SDS011;3045;43.226;27.858;2022-12-29T06:36:02;38.23;;;18.90;;
6033;SDS011;3045;43.226;27.858;2022-12-29T06:38:29;50.90;;;20.20;;
6033;SDS011;3045;43.226;27.858;2022-12-29T06:40:58;32.83;;;16.60;;
6033;SDS011;3045;43.226;27.858;2022-12-29T06:43:24;17.93;;;10.80;;
6033;SDS011;3045;43.226;27.858;2022-12-29T06:45:51;31.47;;;16.17;;
6033;SDS011;3045;43.226;27.858;2022-12-29T06:48:18;28.50;;;14.50;;
6033;SDS011;3045;43.226;27.858;2022-12-29T06:50:45;32.27;;;15.37;;
6033;SDS011;3045;43.226;27.858;2022-12-29T06:53:12;46.43;;;18.10;;
6033;SDS011;3045;43.226;27.858;2022-12-29T06:55:39;47.67;;;18.40;;
6033;SDS011;3045;43.226;27.858;2022-12-29T06:58:07;51.30;;;15.07;;
6033;SDS011;3045;43.226;27.858;2022-12-29T07:00:34;46.30;;;17.43;;
6033;SDS011;3045;43.226;27.858;2022-12-29T07:03:01;52.77;;;19.93;;
6033;SDS011;3045;43.226;27.858;2022-12-29T07:05:28;53.33;;;20.33;;
6033;SDS011;3045;43.226;27.858;2022-12-29T07:07:57;51.73;;;20.20;;
6033;SDS011;3045;43.226;27.858;2022-12-29T07:10:25;58.80;;;22.97;;
6033;SDS011;3045;43.226;27.858;2022-12-29T07:12:52;76.10;;;24.80;;
6033;SDS011;3045;43.226;27.858;2022-12-29T07:15:22;29.00;;;14.20;;
6033;SDS011;3045;43.226;27.858;2022-12-29T07:17:48;47.00;;;17.60;;
6033;SDS011;3045;43.226;27.858;2022-12-29T07:20:15;68.67;;;22.07;;
6033;SDS011;3045;43.226;27.858;2022-12-29T07:22:42;13.63;;;8.50;;
6033;SDS011;3045;43.226;27.858;2022-12-29T07:25:09;32.10;;;13.30;;
6033;SDS011;3045;43.226;27.858;2022-12-29T07:27:36;46.57;;;18.20;;
6033;SDS011;3045;43.226;27.858;2022-12-29T07:30:03;47.00;;;15.17;;
6033;SDS011;3045;43.226;27.858;2022-12-29T07:32:33;42.23;;;15.90;;
6033;SDS011;3045;43.226;27.858;2022-12-29T07:35:00;16.17;;;7.80;;
6033;SDS011;3045;43.226;27.858;2022-12-29T07:37:27;11.43;;;7.17;;
6033;SDS011;3045;43.226;27.858;2022-12-29T07:39:54;15.77;;;8.17;;
6033;SDS011;3045;43.226;27.858;2022-12-29T07:42:21;16.13;;;8.73;;
6033;SDS011;3045;43.226;27.858;2022-12-29T07:44:48;29.03;;;8.17;;
6033;SDS011;3045;43.226;27.858;2022-12-29T07:47:15;26.30;;;8.57;;
6033;SDS011;3045;43.226;27.858;2022-12-29T07:49:43;10.73;;;3.77;;
6033;SDS011;3045;43.226;27.858;2022-12-29T07:52:10;30.83;;;13.70;;
6033;SDS011;3045;43.226;27.858;2022-12-29T07:54:37;38.70;;;16.05;;
6033;SDS011;3045;43.226;27.858;2022-12-29T07:57:04;91.93;;;30.27;;
6033;SDS011;3045;43.226;27.858;2022-12-29T07:59:31;128.57;;;36.33;;
6033;SDS011;3045;43.226;27.858;2022-12-29T08:01:58;134.80;;;39.10;;
6033;SDS011;3045;43.226;27.858;2022-12-29T08:04:25;61.17;;;25.33;;
6033;SDS011;3045;43.226;27.858;2022-12-29T08:06:53;74.20;;;26.52;;
6033;SDS011;3045;43.226;27.858;2022-12-29T08:09:20;73.28;;;24.27;;
6033;SDS011;3045;43.226;27.858;2022-12-29T08:11:46;42.13;;;16.35;;
6033;SDS011;3045;43.226;27.858;2022-12-29T08:14:14;35.42;;;14.40;;
6033;SDS011;3045;43.226;27.858;2022-12-29T08:16:41;11.90;;;8.63;;
6033;SDS011;3045;43.226;27.858;2022-12-29T08:19:09;32.28;;;12.80;;
6033;SDS011;3045;43.226;27.858;2022-12-29T08:21:36;66.40;;;36.58;;
6033;SDS011;3045;43.226;27.858;2022-12-29T08:24:05;90.85;;;59.05;;
6033;SDS011;3045;43.226;27.858;2022-12-29T08:26:33;16.17;;;10.90;;
6033;SDS011;3045;43.226;27.858;2022-12-29T08:29:00;17.88;;;10.32;;
6033;SDS011;3045;43.226;27.858;2022-12-29T08:31:26;18.95;;;7.78;;
6033;SDS011;3045;43.226;27.858;2022-12-29T08:33:53;15.82;;;9.73;;
6033;SDS011;3045;43.226;27.858;2022-12-29T08:36:20;5.65;;;5.07;;
6033;SDS011;3045;43.226;27.858;2022-12-29T08:38:47;4.78;;;4.47;;
6033;SDS011;3045;43.226;27.858;2022-12-29T08:41:16;3.50;;;3.20;;
6033;SDS011;3045;43.226;27.858;2022-12-29T08:43:45;7.40;;;4.15;;
6033;SDS011;3045;43.226;27.858;2022-12-29T08:46:12;13.68;;;5.00;;
6033;SDS011;3045;43.226;27.858;2022-12-29T08:48:39;6.13;;;5.55;;
6033;SDS011;3045;43.226;27.858;2022-12-29T08:51:09;6.50;;;6.03;;
6033;SDS011;3045;43.226;27.858;2022-12-29T08:53:36;6.38;;;5.97;;
6033;SDS011;3045;43.226;27.858;2022-12-29T08:56:03;6.30;;;5.90;;
6033;SDS011;3045;43.226;27.858;2022-12-29T08:58:31;5.35;;;4.95;;
6033;SDS011;3045;43.226;27.858;2022-12-29T09:00:58;7.40;;;6.53;;
6033;SDS011;3045;43.226;27.858;2022-12-29T09:03:25;9.02;;;6.82;;
6033;SDS011;3045;43.226;27.858;2022-12-29T09:05:53;5.30;;;4.90;;
6033;SDS011;3045;43.226;27.858;2022-12-29T09:08:21;9.52;;;7.07;;
6033;SDS011;3045;43.226;27.858;2022-12-29T09:10:49;5.90;;;5.40;;
6033;SDS011;3045;43.226;27.858;2022-12-29T09:13:18;14.15;;;6.90;;
6033;SDS011;3045;43.226;27.858;2022-12-29T09:15:46;5.28;;;4.80;;
6033;SDS011;3045;43.226;27.858;2022-12-29T09:18:13;4.53;;;4.18;;
6033;SDS011;3045;43.226;27.858;2022-12-29T09:20:40;11.32;;;6.78;;
6033;SDS011;3045;43.226;27.858;2022-12-29T09:23:07;5.80;;;5.40;;
6033;SDS011;3045;43.226;27.858;2022-12-29T09:25:34;7.18;;;5.93;;
6033;SDS011;3045;43.226;27.858;2022-12-29T09:28:01;4.95;;;4.03;;
6033;SDS011;3045;43.226;27.858;2022-12-29T09:30:32;8.35;;;5.40;;
6033;SDS011;3045;43.226;27.858;2022-12-29T09:33:00;5.97;;;5.43;;
6033;SDS011;3045;43.226;27.858;2022-12-29T09:35:27;4.35;;;4.05;;
6033;SDS011;3045;43.226;27.858;2022-12-29T09:37:54;4.55;;;4.25;;
6033;SDS011;3045;43.226;27.858;2022-12-29T09:40:26;4.68;;;4.40;;
6033;SDS011;3045;43.226;27.858;2022-12-29T09:43:00;6.60;;;5.22;;
6033;SDS011;3045;43.226;27.858;2022-12-29T09:45:44;4.70;;;4.40;;
6033;SDS011;3045;43.226;27.858;2022-12-29T09:48:16;5.47;;;4.97;;
6033;SDS011;3045;43.226;27.858;2022-12-29T09:50:47;4.40;;;4.07;;
6033;SDS011;3045;43.226;27.858;2022-12-29T09:53:20;5.85;;;5.13;;
6033;SDS011;3045;43.226;27.858;2022-12-29T09:55:53;4.88;;;4.45;;
6033;SDS011;3045;43.226;27.858;2022-12-29T09:58:22;4.60;;;4.22;;
6033;SDS011;3045;43.226;27.858;2022-12-29T10:00:56;9.02;;;4.88;;
6033;SDS011;3045;43.226;27.858;2022-12-29T10:03:35;4.13;;;3.92;;
6033;SDS011;3045;43.226;27.858;2022-12-29T10:06:13;4.60;;;4.30;;
6033;SDS011;3045;43.226;27.858;2022-12-29T10:08:44;4.93;;;4.65;;
6033;SDS011;3045;43.226;27.858;2022-12-29T10:11:22;5.47;;;5.22;;
6033;SDS011;3045;43.226;27.858;2022-12-29T10:14:05;16.70;;;13.27;;
6033;SDS011;3045;43.226;27.858;2022-12-29T10:16:47;17.95;;;12.43;;
6033;SDS011;3045;43.226;27.858;2022-12-29T10:19:43;6.55;;;6.10;;
6033;SDS011;3045;43.226;27.858;2022-12-29T10:22:25;12.07;;;6.85;;
6033;SDS011;3045;43.226;27.858;2022-12-29T10:25:02;8.77;;;6.50;;
6033;SDS011;3045;43.226;27.858;2022-12-29T10:27:34;6.10;;;5.55;;
6033;SDS011;3045;43.226;27.858;2022-12-29T10:30:02;6.03;;;5.40;;
6033;SDS011;3045;43.226;27.858;2022-12-29T10:32:31;5.20;;;4.93;;
6033;SDS011;3045;43.226;27.858;2022-12-29T10:35:03;5.78;;;5.13;;
6033;SDS011;3045;43.226;27.858;2022-12-29T10:37:38;5.38;;;5.07;;
6033;SDS011;3045;43.226;27.858;2022-12-29T10:40:14;5.53;;;5.22;;
6033;SDS011;3045;43.226;27.858;2022-12-29T10:42:46;5.95;;;5.50;;
6033;SDS011;3045;43.226;27.858;2022-12-29T10:45:18;5.75;;;5.25;;
6033;SDS011;3045;43.226;27.858;2022-12-29T10:47:49;5.75;;;5.25;;
6033;SDS011;3045;43.226;27.858;2022-12-29T10:50:21;7.43;;;5.57;;
6033;SDS011;3045;43.226;27.858;2022-12-29T10:52:50;7.20;;;6.70;;
6033;SDS011;3045;43.226;27.858;2022-12-29T10:55:19;5.70;;;5.28;;
6033;SDS011;3045;43.226;27.858;2022-12-29T10:57:49;8.10;;;6.93;;
6033;SDS011;3045;43.226;27.858;2022-12-29T11:00:16;6.85;;;6.25;;
6033;SDS011;3045;43.226;27.858;2022-12-29T11:02:56;5.82;;;5.38;;
6033;SDS011;3045;43.226;27.858;2022-12-29T11:05:52;5.50;;;5.30;;
6033;SDS011;3045;43.226;27.858;2022-12-29T11:08:23;5.90;;;5.50;;
6033;SDS011;3045;43.226;27.858;2022-12-29T11:10:57;5.90;;;5.60;;
6033;SDS011;3045;43.226;27.858;2022-12-29T11:13:27;6.20;;;5.70;;
6033;SDS011;3045;43.226;27.858;2022-12-29T11:15:55;7.32;;;6.68;;
6033;SDS011;3045;43.226;27.858;2022-12-29T11:18:22;6.20;;;5.90;;
6033;SDS011;3045;43.226;27.858;2022-12-29T11:20:53;6.93;;;6.13;;
6033;SDS011;3045;43.226;27.858;2022-12-29T11:23:22;6.55;;;6.15;;
6033;SDS011;3045;43.226;27.858;2022-12-29T11:26:11;6.38;;;6.07;;
6033;SDS011;3045;43.226;27.858;2022-12-29T11:28:41;6.53;;;6.22;;
6033;SDS011;3045;43.226;27.858;2022-12-29T11:31:10;6.15;;;5.75;;
6033;SDS011;3045;43.226;27.858;2022-12-29T11:33:41;6.78;;;6.15;;
6033;SDS011;3045;43.226;27.858;2022-12-29T11:36:10;10.77;;;7.03;;
6033;SDS011;3045;43.226;27.858;2022-12-29T11:38:48;7.60;;;6.00;;
6033;SDS011;3045;43.226;27.858;2022-12-29T11:41:21;6.38;;;6.00;;
6033;SDS011;3045;43.226;27.858;2022-12-29T11:43:53;6.63;;;5.88;;
6033;SDS011;3045;43.226;27.858;2022-12-29T11:46:24;6.72;;;6.28;;
6033;SDS011;3045;43.226;27.858;2022-12-29T11:48:53;6.93;;;6.07;;
6033;SDS011;3045;43.226;27.858;2022-12-29T11:51:25;12.40;;;7.93;;
6033;SDS011;3045;43.226;27.858;2022-12-29T11:53:55;8.07;;;7.67;;
6033;SDS011;3045;43.226;27.858;2022-12-29T11:56:33;8.13;;;7.43;;
6033;SDS011;3045;43.226;27.858;2022-12-29T11:59:23;8.17;;;7.57;;
6033;SDS011;3045;43.226;27.858;2022-12-29T12:02:03;16.63;;;8.07;;
6033;SDS011;3045;43.226;27.858;2022-12-29T12:04:49;13.13;;;8.27;;
6033;SDS011;3045;43.226;27.858;2022-12-29T12:07:22;11.20;;;7.97;;
6033;SDS011;3045;43.226;27.858;2022-12-29T12:09:57;9.03;;;7.63;;
6033;SDS011;3045;43.226;27.858;2022-12-29T12:12:28;9.23;;;8.33;;
6033;SDS011;3045;43.226;27.858;2022-12-29T12:15:00;16.50;;;8.80;;
6033;SDS011;3045;43.226;27.858;2022-12-29T12:17:29;10.27;;;7.70;;
6033;SDS011;3045;43.226;27.858;2022-12-29T12:20:05;9.13;;;7.53;;
6033;SDS011;3045;43.226;27.858;2022-12-29T12:22:45;20.87;;;9.17;;
6033;SDS011;3045;43.226;27.858;2022-12-29T12:25:21;11.00;;;9.90;;
6033;SDS011;3045;43.226;27.858;2022-12-29T12:27:53;11.47;;;10.37;;
6033;SDS011;3045;43.226;27.858;2022-12-29T12:30:26;11.03;;;9.93;;
6033;SDS011;3045;43.226;27.858;2022-12-29T12:32:58;12.07;;;10.03;;
6033;SDS011;3045;43.226;27.858;2022-12-29T12:35:32;13.10;;;11.27;;
6033;SDS011;3045;43.226;27.858;2022-12-29T12:41:05;10.97;;;10.17;;
6033;SDS011;3045;43.226;27.858;2022-12-29T12:43:40;13.80;;;9.90;;
6033;SDS011;3045;43.226;27.858;2022-12-29T12:46:17;11.47;;;10.47;;
6033;SDS011;3045;43.226;27.858;2022-12-29T12:49:03;11.57;;;10.40;;
6033;SDS011;3045;43.226;27.858;2022-12-29T12:51:50;10.57;;;9.47;;
6033;SDS011;3045;43.226;27.858;2022-12-29T12:54:32;10.37;;;9.47;;
6033;SDS011;3045;43.226;27.858;2022-12-29T12:57:12;9.83;;;8.93;;
6033;SDS011;3045;43.226;27.858;2022-12-29T12:59:49;10.73;;;9.83;;
6033;SDS011;3045;43.226;27.858;2022-12-29T13:02:27;10.13;;;9.53;;
6033;SDS011;3045;43.226;27.858;2022-12-29T13:07:55;9.57;;;8.73;;
6033;SDS011;3045;43.226;27.858;2022-12-29T13:10:42;13.00;;;10.27;;
6033;SDS011;3045;43.226;27.858;2022-12-29T13:16:15;10.60;;;9.67;;
6033;SDS011;3045;43.226;27.858;2022-12-29T13:18:55;12.33;;;9.30;;
6033;SDS011;3045;43.226;27.858;2022-12-29T13:21:34;9.97;;;9.17;;
6033;SDS011;3045;43.226;27.858;2022-12-29T13:24:14;9.03;;;8.43;;
6033;SDS011;3045;43.226;27.858;2022-12-29T13:26:52;11.13;;;8.37;;
6033;SDS011;3045;43.226;27.858;2022-12-29T13:29:29;9.00;;;8.20;;
6033;SDS011;3045;43.226;27.858;2022-12-29T13:32:05;9.20;;;8.27;;
6033;SDS011;3045;43.226;27.858;2022-12-29T13:34:50;11.80;;;7.80;;
6033;SDS011;3045;43.226;27.858;2022-12-29T13:37:31;7.80;;;7.13;;
6033;SDS011;3045;43.226;27.858;2022-12-29T13:40:03;8.47;;;7.87;;
6033;SDS011;3045;43.226;27.858;2022-12-29T13:42:40;9.30;;;8.57;;
6033;SDS011;3045;43.226;27.858;2022-12-29T13:45:10;9.17;;;8.37;;
6033;SDS011;3045;43.226;27.858;2022-12-29T13:47:41;11.50;;;9.87;;
6033;SDS011;3045;43.226;27.858;2022-12-29T13:50:14;12.93;;;9.23;;
6033;SDS011;3045;43.226;27.858;2022-12-29T13:52:44;9.73;;;9.03;;
6033;SDS011;3045;43.226;27.858;2022-12-29T13:55:20;9.97;;;8.77;;
6033;SDS011;3045;43.226;27.858;2022-12-29T13:57:56;8.87;;;8.27;;
6033;SDS011;3045;43.226;27.858;2022-12-29T14:00:29;11.27;;;8.87;;
6033;SDS011;3045;43.226;27.858;2022-12-29T14:06:15;14.83;;;9.67;;
6033;SDS011;3045;43.226;27.858;2022-12-29T14:08:46;11.67;;;9.30;;
6033;SDS011;3045;43.226;27.858;2022-12-29T14:11:15;9.87;;;8.97;;
6033;SDS011;3045;43.226;27.858;2022-12-29T14:13:46;12.03;;;10.27;;
6033;SDS011;3045;43.226;27.858;2022-12-29T14:16:24;11.33;;;10.17;;
6033;SDS011;3045;43.226;27.858;2022-12-29T14:18:53;10.53;;;9.63;;
6033;SDS011;3045;43.226;27.858;2022-12-29T14:21:23;10.57;;;9.73;;
6033;SDS011;3045;43.226;27.858;2022-12-29T14:23:56;19.50;;;10.80;;
6033;SDS011;3045;43.226;27.858;2022-12-29T14:26:42;19.83;;;11.23;;
6033;SDS011;3045;43.226;27.858;2022-12-29T14:29:41;11.10;;;10.03;;
6033;SDS011;3045;43.226;27.858;2022-12-29T14:38:06;15.37;;;10.87;;
6033;SDS011;3045;43.226;27.858;2022-12-29T14:40:41;11.63;;;9.80;;
6033;SDS011;3045;43.226;27.858;2022-12-29T14:43:11;20.60;;;11.10;;
6033;SDS011;3045;43.226;27.858;2022-12-29T14:45:47;13.70;;;9.77;;
6033;SDS011;3045;43.226;27.858;2022-12-29T14:48:30;12.83;;;11.23;;
6033;SDS011;3045;43.226;27.858;2022-12-29T14:51:00;18.10;;;11.03;;
6033;SDS011;3045;43.226;27.858;2022-12-29T14:53:41;11.83;;;10.53;;
6033;SDS011;3045;43.226;27.858;2022-12-29T14:56:11;16.80;;;11.03;;
6033;SDS011;3045;43.226;27.858;2022-12-29T14:58:43;16.67;;;11.90;;
6033;SDS011;3045;43.226;27.858;2022-12-29T15:01:19;17.00;;;10.83;;
6033;SDS011;3045;43.226;27.858;2022-12-29T15:04:05;15.53;;;10.97;;
6033;SDS011;3045;43.226;27.858;2022-12-29T15:06:41;15.93;;;11.13;;
6033;SDS011;3045;43.226;27.858;2022-12-29T15:09:12;18.00;;;11.50;;
6033;SDS011;3045;43.226;27.858;2022-12-29T15:11:52;18.53;;;12.47;;
6033;SDS011;3045;43.226;27.858;2022-12-29T15:17:12;14.30;;;11.57;;
6033;SDS011;3045;43.226;27.858;2022-12-29T15:19:50;17.50;;;11.97;;
6033;SDS011;3045;43.226;27.858;2022-12-29T15:22:17;16.13;;;12.27;;
6033;SDS011;3045;43.226;27.858;2022-12-29T15:24:44;13.13;;;11.77;;
6033;SDS011;3045;43.226;27.858;2022-12-29T15:27:12;17.60;;;12.57;;
6033;SDS011;3045;43.226;27.858;2022-12-29T15:29:42;13.30;;;11.73;;
6033;SDS011;3045;43.226;27.858;2022-12-29T15:32:20;14.23;;;12.77;;
6033;SDS011;3045;43.226;27.858;2022-12-29T15:34:49;14.70;;;13.20;;
6033;SDS011;3045;43.226;27.858;2022-12-29T15:37:20;27.13;;;14.27;;
6033;SDS011;3045;43.226;27.858;2022-12-29T15:39:50;35.83;;;14.23;;